Time,TemperatureF,DewpointF,PressureIn,WindDirection,WindDirectionDegrees,WindSpeedMPH,WindSpeedGustMPH,Humidity,HourlyPrecipIn,Conditions,Clouds,dailyrainin,SoftwareType,DateUTC
2013-02-27 00:01:00,29.0,5.0,-100.00,ESE,117,3.0,4.0,35,-99.99,,,-99.99,,2013-02-27 08:01:00,
2013-02-27 00:11:00,29.0,5.0,-100.00,ESE,117,3.0,4.0,35,-99.99,,,-99.99,,2013-02-27 08:11:00,
2013-02-27 00:21:00,29.0,6.0,-100.00,SE,131,3.0,4.0,37,-99.99,,,-99.99,,2013-02-27 08:21:00,
2013-02-27 00:31:00,29.0,8.0,-100.00,SE,127,4.0,5.0,40,-99.99,,,-99.99,,2013-02-27 08:31:00,
2013-02-27 00:41:00,29.0,8.0,-100.00,SE,127,4.0,5.0,40,-99.99,,,-99.99,,2013-02-27 08:41:00,
2013-02-27 00:52:00,29.0,8.0,-100.00,SE,134,4.0,5.0,40,-99.99,,,-99.99,,2013-02-27 08:52:00,
2013-02-27 01:01:00,29.0,8.0,-100.00,SE,134,4.0,5.0,40,-99.99,,,-99.99,,2013-02-27 09:01:00,
2013-02-27 04:42:00,27.0,9.0,-100.00,SE,133,4.0,4.0,46,-99.99,,,-99.99,,2013-02-27 12:42:00,
2013-02-27 05:32:00,27.0,9.0,-100.00,SE,133,4.0,4.0,46,-99.99,,,-99.99,,2013-02-27 13:32:00,
2013-02-27 07:52:00,27.0,12.0,-100.00,SE,127,3.0,4.0,53,-99.99,,,-99.99,,2013-02-27 15:52:00,
2013-02-27 08:01:00,27.0,12.0,-100.00,SE,127,3.0,4.0,53,-99.99,,,-99.99,,2013-02-27 16:01:00,
2013-02-27 08:11:00,27.0,12.0,-100.00,SE,130,3.0,4.0,53,-99.99,,,-99.99,,2013-02-27 16:11:00,
2013-02-27 08:22:00,27.0,12.0,-100.00,SE,130,3.0,4.0,53,-99.99,,,-99.99,,2013-02-27 16:22:00,
2013-02-27 08:32:00,27.0,13.0,-100.00,ESE,119,3.0,4.0,56,-99.99,,,-99.99,,2013-02-27 16:32:00,
2013-02-27 08:42:00,27.0,15.0,-100.00,SSE,167,1.0,3.0,62,-99.99,,,-99.99,,2013-02-27 16:42:00,
2013-02-27 08:52:00,27.0,15.0,-100.00,SSE,167,1.0,3.0,62,-99.99,,,-99.99,,2013-02-27 16:52:00,
2013-02-27 09:01:00,27.0,13.0,-100.00,East,97,0.0,1.0,54,-99.99,,,-99.99,,2013-02-27 17:01:00,
2013-02-27 09:11:00,27.0,13.0,-100.00,East,97,0.0,1.0,54,-99.99,,,-99.99,,2013-02-27 17:11:00,
2013-02-27 09:21:00,27.0,17.0,-100.00,SSE,165,0.0,1.0,63,-99.99,,,-99.99,,2013-02-27 17:21:00,
2013-02-27 09:32:00,29.0,16.0,-100.00,SSE,160,0.0,0.0,60,-99.99,,,-99.99,,2013-02-27 17:32:00,
2013-02-27 09:41:00,30.0,16.0,-100.00,SSW,195,0.0,0.0,55,-99.99,,,-99.99,,2013-02-27 17:41:00,
2013-02-27 09:52:00,30.0,16.0,-100.00,SSW,195,0.0,0.0,55,-99.99,,,-99.99,,2013-02-27 17:52:00,
2013-02-27 10:01:00,32.0,17.0,-100.00,SW,223,1.0,2.0,53,-99.99,,,-99.99,,2013-02-27 18:01:00,
2013-02-27 10:11:00,32.0,18.0,-100.00,SSW,212,2.0,3.0,55,-99.99,,,-99.99,,2013-02-27 18:11:00,
2013-02-27 10:22:00,32.0,18.0,-100.00,SSW,212,2.0,3.0,55,-99.99,,,-99.99,,2013-02-27 18:22:00,
2013-02-27 10:32:00,34.0,19.0,-100.00,NW,305,1.0,2.0,53,-99.99,,,-99.99,,2013-02-27 18:32:00,
2013-02-27 10:42:00,34.0,19.0,-100.00,NW,305,1.0,2.0,53,-99.99,,,-99.99,,2013-02-27 18:42:00,
2013-02-27 10:51:00,34.0,19.0,-100.00,NW,305,1.0,2.0,53,-99.99,,,-99.99,,2013-02-27 18:51:00,
2013-02-27 11:01:00,35.0,19.0,-100.00,WNW,302,2.0,4.0,52,-99.99,,,-99.99,,2013-02-27 19:01:00,
2013-02-27 11:11:00,36.0,18.0,-100.00,NW,313,2.0,3.0,48,-99.99,,,-99.99,,2013-02-27 19:11:00,
2013-02-27 11:21:00,36.0,18.0,-100.00,NW,313,2.0,3.0,48,-99.99,,,-99.99,,2013-02-27 19:21:00,
2013-02-27 11:32:00,36.0,20.0,-100.00,WNW,288,2.0,3.0,52,-99.99,,,-99.99,,2013-02-27 19:32:00,
2013-02-27 11:42:00,37.0,20.0,-100.00,WNW,302,2.0,4.0,51,-99.99,,,-99.99,,2013-02-27 19:42:00,
2013-02-27 11:51:00,37.0,21.0,-100.00,NW,304,1.0,3.0,52,-99.99,,,-99.99,,2013-02-27 19:51:00,
2013-02-27 12:01:00,38.0,21.0,-100.00,WNW,302,0.0,0.0,49,-99.99,,,-99.99,,2013-02-27 20:01:00,
2013-02-27 12:11:00,38.0,20.0,-100.00,NW,326,0.0,0.0,49,-99.99,,,-99.99,,2013-02-27 20:11:00,
2013-02-27 12:21:00,38.0,20.0,-100.00,North,352,0.0,0.0,47,-99.99,,,-99.99,,2013-02-27 20:21:00,
2013-02-27 12:31:00,39.0,21.0,-100.00,NW,313,0.0,0.0,48,-99.99,,,-99.99,,2013-02-27 20:31:00,
2013-02-27 12:42:00,39.0,21.0,-100.00,NW,313,0.0,0.0,49,-99.99,,,-99.99,,2013-02-27 20:42:00,
2013-02-27 12:52:00,39.0,22.0,-100.00,WNW,291,0.0,0.0,51,-99.99,,,-99.99,,2013-02-27 20:52:00,
2013-02-27 13:01:00,39.0,22.0,-100.00,NW,319,0.0,0.0,51,-99.99,,,-99.99,,2013-02-27 21:01:00,
2013-02-27 13:11:00,40.0,25.0,-100.00,WNW,299,0.0,0.0,56,-99.99,,,-99.99,,2013-02-27 21:11:00,
2013-02-27 13:21:00,41.0,26.0,-100.00,West,280,0.0,0.0,55,-99.99,,,-99.99,,2013-02-27 21:21:00,
2013-02-27 13:31:00,41.0,26.0,-100.00,WNW,301,2.0,4.0,55,-99.99,,,-99.99,,2013-02-27 21:31:00,
2013-02-27 13:42:00,42.0,25.0,-100.00,SSW,205,0.0,0.0,51,-99.99,,,-99.99,,2013-02-27 21:42:00,
2013-02-27 13:51:00,41.0,24.0,-100.00,WNW,284,0.0,2.0,49,-99.99,,,-99.99,,2013-02-27 21:51:00,
2013-02-27 14:01:00,44.0,13.0,-100.00,WNW,298,3.0,4.0,28,-99.99,,,-99.99,,2013-02-27 22:01:00,
2013-02-27 14:11:00,44.0,22.0,-100.00,WNW,298,2.0,4.0,42,-99.99,,,-99.99,,2013-02-27 22:11:00,
2013-02-27 14:21:00,45.0,10.0,-100.00,West,261,1.0,2.0,23,-99.99,,,-99.99,,2013-02-27 22:21:00,
2013-02-27 14:31:00,45.0,9.0,-100.00,West,272,2.0,5.0,22,-99.99,,,-99.99,,2013-02-27 22:31:00,
2013-02-27 14:41:00,45.0,10.0,-100.00,SSW,199,2.0,4.0,24,-99.99,,,-99.99,,2013-02-27 22:41:00,
2013-02-27 14:51:00,46.0,12.0,-100.00,SW,233,1.0,3.0,25,-99.99,,,-99.99,,2013-02-27 22:51:00,
2013-02-27 15:01:00,46.0,12.0,-100.00,SW,233,1.0,3.0,25,-99.99,,,-99.99,,2013-02-27 23:01:00,
2013-02-27 15:11:00,46.0,12.0,-100.00,SW,233,1.0,3.0,25,-99.99,,,-99.99,,2013-02-27 23:11:00,
2013-02-27 15:21:00,47.0,13.0,-100.00,WSW,257,1.0,4.0,25,-99.99,,,-99.99,,2013-02-27 23:21:00,
2013-02-27 15:32:00,46.0,12.0,-100.00,WNW,298,1.0,3.0,25,-99.99,,,-99.99,,2013-02-27 23:32:00,
2013-02-27 15:42:00,47.0,13.0,-100.00,WSW,239,1.0,2.0,25,-99.99,,,-99.99,,2013-02-27 23:42:00,
2013-02-27 15:52:00,47.0,19.0,-100.00,West,270,3.0,6.0,32,-99.99,,,-99.99,,2013-02-27 23:52:00,
2013-02-27 16:01:00,47.0,17.0,-100.00,West,270,2.0,4.0,30,-99.99,,,-99.99,,2013-02-28 00:01:00,
2013-02-27 16:11:00,48.0,17.0,-100.00,WSW,244,3.0,6.0,29,-99.99,,,-99.99,,2013-02-28 00:11:00,
2013-02-27 16:21:00,48.0,11.0,-100.00,West,260,0.0,4.0,22,-99.99,,,-99.99,,2013-02-28 00:21:00,
2013-02-27 16:32:00,47.0,11.0,-100.00,SW,217,4.0,7.0,23,-99.99,,,-99.99,,2013-02-28 00:32:00,
2013-02-27 16:42:00,48.0,17.0,-100.00,SW,227,3.0,6.0,29,-99.99,,,-99.99,,2013-02-28 00:42:00,
2013-02-27 16:51:00,47.0,15.0,-100.00,WSW,257,2.0,6.0,27,-99.99,,,-99.99,,2013-02-28 00:51:00,
2013-02-27 17:01:00,47.0,16.0,-100.00,West,267,1.0,3.0,28,-99.99,,,-99.99,,2013-02-28 01:01:00,
2013-02-27 17:11:00,46.0,17.0,-100.00,WSW,239,1.0,4.0,30,-99.99,,,-99.99,,2013-02-28 01:11:00,
2013-02-27 17:21:00,46.0,16.0,-100.00,WSW,237,3.0,6.0,29,-99.99,,,-99.99,,2013-02-28 01:21:00,
2013-02-27 17:31:00,45.0,18.0,-100.00,SW,222,6.0,9.0,33,-99.99,,,-99.99,,2013-02-28 01:31:00,
2013-02-27 17:41:00,46.0,18.0,-100.00,WSW,250,2.0,4.0,32,-99.99,,,-99.99,,2013-02-28 01:41:00,
2013-02-27 17:51:00,45.0,18.0,-100.00,WNW,295,1.0,5.0,33,-99.99,,,-99.99,,2013-02-28 01:51:00,
2013-02-27 18:01:00,44.0,18.0,-100.00,West,260,2.0,4.0,35,-99.99,,,-99.99,,2013-02-28 02:01:00,
2013-02-27 18:11:00,44.0,19.0,-100.00,WSW,253,2.0,5.0,37,-99.99,,,-99.99,,2013-02-28 02:11:00,
2013-02-27 18:22:00,43.0,22.0,-100.00,WSW,240,3.0,8.0,43,-99.99,,,-99.99,,2013-02-28 02:22:00,
2013-02-27 18:31:00,41.0,21.0,-100.00,SW,220,5.0,7.0,44,-99.99,,,-99.99,,2013-02-28 02:31:00,
2013-02-27 18:41:00,41.0,21.0,-100.00,SW,220,5.0,7.0,44,-99.99,,,-99.99,,2013-02-28 02:41:00,
2013-02-27 18:51:00,41.0,21.0,-100.00,SW,220,5.0,7.0,44,-99.99,,,-99.99,,2013-02-28 02:51:00,
2013-02-27 19:01:00,37.0,21.0,-100.00,South,172,1.0,3.0,53,-99.99,,,-99.99,,2013-02-28 03:01:00,
2013-02-27 19:11:00,38.0,22.0,-100.00,SE,145,5.0,7.0,53,-99.99,,,-99.99,,2013-02-28 03:11:00,
2013-02-27 19:21:00,37.0,23.0,-100.00,South,176,3.0,6.0,55,-99.99,,,-99.99,,2013-02-28 03:21:00,
2013-02-27 19:31:00,37.0,23.0,-100.00,South,176,3.0,6.0,55,-99.99,,,-99.99,,2013-02-28 03:31:00,
2013-02-27 19:41:00,37.0,23.0,-100.00,South,174,3.0,6.0,58,-99.99,,,-99.99,,2013-02-28 03:41:00,
2013-02-27 19:51:00,36.0,23.0,-100.00,SE,131,3.0,4.0,59,-99.99,,,-99.99,,2013-02-28 03:51:00,
2013-02-27 20:01:00,35.0,24.0,-100.00,SE,143,2.0,3.0,64,-99.99,,,-99.99,,2013-02-28 04:01:00,
2013-02-27 20:11:00,35.0,25.0,-100.00,ESE,120,3.0,4.0,65,-99.99,,,-99.99,,2013-02-28 04:11:00,
2013-02-27 20:21:00,35.0,25.0,-100.00,ESE,120,3.0,4.0,65,-99.99,,,-99.99,,2013-02-28 04:21:00,
2013-02-27 20:31:00,35.0,25.0,-100.00,ESE,120,3.0,4.0,65,-99.99,,,-99.99,,2013-02-28 04:31:00,
2013-02-27 22:32:00,33.0,20.0,-100.00,East,100,2.0,4.0,57,-99.99,,,-99.99,,2013-02-28 06:32:00,
2013-02-27 22:42:00,34.0,18.0,-100.00,SE,124,1.0,2.0,50,-99.99,,,-99.99,,2013-02-28 06:42:00,
2013-02-27 22:51:00,34.0,18.0,-100.00,ESE,117,2.0,3.0,51,-99.99,,,-99.99,,2013-02-28 06:51:00,
2013-02-27 23:01:00,33.0,19.0,-100.00,SE,127,4.0,5.0,55,-99.99,,,-99.99,,2013-02-28 07:01:00,
2013-02-27 23:11:00,33.0,20.0,-100.00,ESE,107,4.0,5.0,58,-99.99,,,-99.99,,2013-02-28 07:11:00,
2013-02-27 23:21:00,33.0,19.0,-100.00,SE,127,4.0,5.0,56,-99.99,,,-99.99,,2013-02-28 07:21:00,
2013-02-27 23:31:00,34.0,21.0,-100.00,ESE,121,3.0,5.0,60,-99.99,,,-99.99,,2013-02-28 07:31:00,
2013-02-27 23:41:00,34.0,20.0,-100.00,ESE,104,3.0,4.0,58,-99.99,,,-99.99,,2013-02-28 07:41:00,
2013-02-27 23:51:00,34.0,21.0,-100.00,ESE,106,3.0,4.0,59,-99.99,,,-99.99,,2013-02-28 07:51:00,